createdAt,value
2023-02-11T00:02:11.078Z,21.38
2023-02-11T00:05:15.424Z,22.20
2023-02-11T00:08:19.623Z,21.67
2023-02-11T00:11:31.343Z,20.90
2023-02-11T00:14:35.338Z,21.27
2023-02-11T00:17:39.881Z,21.15
2023-02-11T00:20:44.313Z,21.65
2023-02-11T00:23:48.270Z,20.75
2023-02-11T00:26:52.494Z,21.88
2023-02-11T00:29:56.832Z,20.80
2023-02-11T00:33:01.121Z,20.52
2023-02-11T00:36:11.267Z,21.13
2023-02-11T00:39:15.533Z,21.30
2023-02-11T00:42:19.323Z,21.30
2023-02-11T00:45:23.679Z,21.38
2023-02-11T00:48:27.748Z,20.02
2023-02-11T00:51:31.897Z,21.95
2023-02-11T00:54:36.164Z,22.00
2023-02-11T00:57:40.227Z,22.38
2023-02-11T01:00:44.606Z,21.95
2023-02-11T01:03:48.620Z,21.85
2023-02-11T01:06:53.360Z,21.50
2023-02-11T01:09:57.457Z,20.67
2023-02-11T01:13:01.797Z,21.40
2023-02-11T01:16:10.504Z,20.52
2023-02-11T01:19:14.788Z,19.73
2023-02-11T01:22:19.406Z,21.20
2023-02-11T01:25:23.941Z,21.15
2023-02-11T01:28:30.392Z,20.92
2023-02-11T01:31:35.017Z,21.02
2023-02-11T01:34:38.936Z,20.50
2023-02-11T01:37:43.091Z,21.00
2023-02-11T01:41:00.982Z,20.23
2023-02-11T01:44:33.421Z,19.95
2023-02-11T01:47:37.573Z,19.90
2023-02-11T01:50:42.996Z,19.88
2023-02-11T01:54:08.261Z,20.02
2023-02-11T01:57:22.181Z,20.88
2023-02-11T02:00:34.248Z,20.42
2023-02-11T02:03:41.812Z,19.17
2023-02-11T02:06:54.810Z,20.42
2023-02-11T02:10:05.176Z,20.20
2023-02-11T02:13:09.700Z,21.05
2023-02-11T02:16:16.733Z,20.77
2023-02-11T02:19:36.243Z,19.48
2023-02-11T02:22:52.270Z,19.70
2023-02-11T02:26:14.649Z,20.42
2023-02-11T02:29:24.791Z,20.30
2023-02-11T02:33:16.740Z,19.67
2023-02-11T02:36:44.247Z,20.48
2023-02-11T02:39:50.340Z,19.25
2023-02-11T02:42:55.506Z,20.30
2023-02-11T02:46:24.886Z,20.08
2023-02-11T02:49:29.260Z,20.40
2023-02-11T02:52:39.317Z,20.30
2023-02-11T02:56:11.485Z,20.50
2023-02-11T02:59:30.971Z,21.50
2023-02-11T03:03:21.351Z,20.27
2023-02-11T03:06:28.064Z,21.02
2023-02-11T03:09:54.798Z,21.25
2023-02-11T03:13:00.226Z,20.10
2023-02-11T03:16:09.719Z,21.85
2023-02-11T03:19:23.577Z,20.77
2023-02-11T03:22:35.323Z,21.48
2023-02-11T03:25:48.994Z,20.85
2023-02-11T03:29:06.924Z,21.55
2023-02-11T03:32:17.455Z,21.77
2023-02-11T03:35:39.532Z,21.02
2023-02-11T03:38:51.824Z,21.70
2023-02-11T03:41:56.488Z,22.27
2023-02-11T03:45:06.585Z,23.15
2023-02-11T03:48:39.624Z,22.00
2023-02-11T03:51:44.131Z,22.40
2023-02-11T03:54:53.639Z,22.67
2023-02-11T03:57:57.924Z,22.73
2023-02-11T04:01:02.728Z,21.50
2023-02-11T04:04:06.801Z,21.33
2023-02-11T04:07:12.242Z,22.00
2023-02-11T04:10:16.791Z,22.60
2023-02-11T04:13:22.991Z,22.10
2023-02-11T04:16:27.026Z,22.63
2023-02-11T04:19:30.937Z,22.83
2023-02-11T04:22:35.233Z,21.45
2023-02-11T04:25:39.812Z,22.48
2023-02-11T04:28:43.777Z,21.55
2023-02-11T04:31:48.372Z,21.92
2023-02-11T04:34:52.195Z,21.35
2023-02-11T04:37:56.415Z,21.83
2023-02-11T04:41:00.939Z,21.77
2023-02-11T04:44:05.254Z,21.13
2023-02-11T04:47:09.560Z,21.70
2023-02-11T04:50:13.687Z,20.80
2023-02-11T04:53:17.625Z,22.08
2023-02-11T04:56:21.585Z,21.50
2023-02-11T04:59:25.846Z,21.25
2023-02-11T05:02:30.141Z,21.40
2023-02-11T05:05:34.384Z,21.40
2023-02-11T05:08:39.013Z,22.23
2023-02-11T05:11:43.564Z,22.17
2023-02-11T05:14:47.640Z,21.92
2023-02-11T05:17:51.850Z,22.48
2023-02-11T05:20:55.912Z,22.58
2023-02-11T05:24:00.452Z,22.45
2023-02-11T05:27:04.599Z,22.00
2023-02-11T05:30:09.632Z,22.17
2023-02-11T05:33:13.614Z,22.45
2023-02-11T05:36:17.861Z,22.98
2023-02-11T05:39:22.008Z,22.45
2023-02-11T05:42:26.335Z,22.98
2023-02-11T05:45:31.024Z,24.25
2023-02-11T05:48:35.667Z,23.13
2023-02-11T05:51:39.580Z,23.10
2023-02-11T05:54:43.676Z,23.73
2023-02-11T05:57:47.872Z,24.00
2023-02-11T06:00:52.029Z,24.35
2023-02-11T06:03:55.903Z,23.80
2023-02-11T06:07:00.300Z,24.02
2023-02-11T06:10:04.681Z,23.38
2023-02-11T06:13:08.783Z,24.15
2023-02-11T06:16:13.357Z,25.63
2023-02-11T06:19:17.327Z,24.65
2023-02-11T06:22:21.265Z,25.83
2023-02-11T06:25:25.364Z,25.10
2023-02-11T06:28:31.386Z,25.23
2023-02-11T06:31:38.048Z,25.73
2023-02-11T06:34:41.816Z,26.00
2023-02-11T06:37:46.775Z,25.83
2023-02-11T06:40:51.019Z,25.15
2023-02-11T06:43:55.082Z,25.77
2023-02-11T06:46:59.206Z,25.38
2023-02-11T06:50:03.709Z,25.70
2023-02-11T06:53:07.974Z,26.25
2023-02-11T06:56:17.851Z,25.33
2023-02-11T06:59:22.072Z,25.73
2023-02-11T07:02:26.425Z,25.50
2023-02-11T07:05:31.006Z,25.60
2023-02-11T07:08:36.898Z,26.88
2023-02-11T07:11:41.281Z,26.17
2023-02-11T07:14:45.427Z,24.92
2023-02-11T07:17:49.586Z,25.45
2023-02-11T07:20:53.953Z,25.88
2023-02-11T07:23:58.055Z,26.27
2023-02-11T07:27:02.243Z,24.83
2023-02-11T07:30:07.499Z,25.77
2023-02-11T07:33:11.574Z,25.15
2023-02-11T07:36:16.551Z,25.80
2023-02-11T07:39:21.878Z,25.13
2023-02-11T07:42:25.962Z,25.98
2023-02-11T07:45:30.032Z,26.52
2023-02-11T07:48:34.791Z,26.08
2023-02-11T07:51:39.197Z,26.50
2023-02-11T07:54:43.483Z,25.38
2023-02-11T07:57:47.298Z,25.27
2023-02-11T08:00:51.212Z,25.58
2023-02-11T08:03:57.416Z,26.88
2023-02-11T08:07:01.263Z,24.38
2023-02-11T08:10:05.376Z,24.95
2023-02-11T08:13:09.429Z,26.27
2023-02-11T08:16:31.002Z,26.55
2023-02-11T08:19:35.381Z,26.15
2023-02-11T08:22:39.758Z,26.27
2023-02-11T08:25:44.062Z,26.15
2023-02-11T08:28:49.611Z,25.70
2023-02-11T08:31:53.599Z,25.27
2023-02-11T08:34:57.393Z,25.55
2023-02-11T08:38:01.566Z,25.08
2023-02-11T08:41:06.422Z,25.42
2023-02-11T08:44:10.996Z,25.58
2023-02-11T08:47:14.860Z,24.42
2023-02-11T08:50:18.781Z,24.88
2023-02-11T08:53:22.921Z,25.25
2023-02-11T08:56:28.131Z,25.17
2023-02-11T08:59:32.411Z,26.35
2023-02-11T09:02:36.570Z,25.20
2023-02-11T09:05:45.739Z,26.70
2023-02-11T09:08:52.645Z,24.40
2023-02-11T09:11:57.330Z,23.95
2023-02-11T09:15:01.523Z,24.63
2023-02-11T09:18:05.820Z,25.88
2023-02-11T09:21:10.109Z,26.40
2023-02-11T09:24:14.528Z,25.80
2023-02-11T09:27:18.639Z,25.70
2023-02-11T09:30:22.827Z,25.33
2023-02-11T09:33:27.168Z,25.08
2023-02-11T09:36:35.308Z,24.38
2023-02-11T09:39:39.518Z,25.83
2023-02-11T09:42:48.172Z,25.42
2023-02-11T09:45:55.824Z,25.75
2023-02-11T09:49:00.363Z,25.98
2023-02-11T09:52:32.259Z,26.60
2023-02-11T09:55:45.484Z,23.60
2023-02-11T09:58:49.313Z,25.63
2023-02-11T10:01:59.232Z,24.55
2023-02-11T10:05:15.350Z,24.35
2023-02-11T10:08:47.539Z,24.48
2023-02-11T10:12:15.610Z,24.55
2023-02-11T10:15:38.868Z,24.10
2023-02-11T10:18:48.784Z,24.70
2023-02-11T10:21:58.857Z,23.45
2023-02-11T10:25:18.810Z,22.98
2023-02-11T10:28:36.045Z,23.10
2023-02-11T10:31:44.608Z,22.98
2023-02-11T10:34:48.755Z,23.70
2023-02-11T10:37:53.889Z,23.13
2023-02-11T10:40:57.918Z,23.38
2023-02-11T10:44:01.949Z,24.08
2023-02-11T10:47:28.816Z,23.15
2023-02-11T10:50:35.135Z,22.70
2023-02-11T10:53:39.624Z,23.90
2023-02-11T10:56:52.857Z,24.25
2023-02-11T11:00:00.509Z,23.25
2023-02-11T11:03:16.921Z,22.52
2023-02-11T11:06:34.863Z,22.67
2023-02-11T11:09:46.858Z,23.60
2023-02-11T11:12:51.295Z,23.17
2023-02-11T11:16:12.906Z,23.02
2023-02-11T11:19:22.653Z,22.65
2023-02-11T11:22:26.523Z,22.25
2023-02-11T11:25:30.713Z,23.23
2023-02-11T11:29:08.304Z,23.00
2023-02-11T11:32:20.595Z,22.83
2023-02-11T11:35:30.867Z,22.83
2023-02-11T11:38:37.629Z,21.50
2023-02-11T11:41:51.612Z,22.65
2023-02-11T11:45:04.601Z,23.30
2023-02-11T11:48:42.739Z,22.65
2023-02-11T11:51:57.905Z,22.52
2023-02-11T11:55:26.964Z,22.00
2023-02-11T11:58:32.108Z,24.38
2023-02-11T12:02:00.658Z,22.10
2023-02-11T12:05:17.213Z,22.67
2023-02-11T12:08:37.802Z,22.98
2023-02-11T12:12:02.433Z,22.83
2023-02-11T12:15:22.906Z,21.38
2023-02-11T12:18:47.541Z,22.63
2023-02-11T12:22:19.666Z,21.13
2023-02-11T12:25:55.678Z,21.75
2023-02-11T12:29:28.543Z,21.90
2023-02-11T12:32:43.602Z,22.77
2023-02-11T12:35:47.589Z,21.52
2023-02-11T12:38:51.409Z,21.60
2023-02-11T12:42:52.149Z,22.20
2023-02-11T12:46:11.793Z,21.83
2023-02-11T12:49:45.604Z,22.00
2023-02-11T12:56:38.774Z,22.27
2023-02-11T12:59:49.970Z,20.95
2023-02-11T13:03:02.572Z,22.10
2023-02-11T13:06:14.648Z,22.48
2023-02-11T13:09:26.601Z,21.25
2023-02-11T13:12:51.540Z,22.45
2023-02-11T13:16:05.597Z,21.75
2023-02-11T13:19:12.832Z,22.63
2023-02-11T13:22:27.407Z,21.15
2023-02-11T13:25:40.694Z,21.30
2023-02-11T13:28:48.640Z,20.73
2023-02-11T13:31:58.438Z,22.10
2023-02-11T13:35:02.685Z,21.13
2023-02-11T13:38:19.360Z,21.55
2023-02-11T13:41:34.388Z,22.05
2023-02-11T13:44:38.801Z,21.75
2023-02-11T13:47:42.975Z,22.30
2023-02-11T13:50:49.702Z,21.58
2023-02-11T13:53:56.486Z,21.42
2023-02-11T13:57:22.130Z,21.63
2023-02-11T14:00:35.317Z,20.90
2023-02-11T14:04:14.585Z,21.33
2023-02-11T14:07:48.950Z,21.13
2023-02-11T14:10:59.065Z,21.65
2023-02-11T14:14:05.064Z,20.65
2023-02-11T14:17:09.495Z,21.27
2023-02-11T14:20:38.139Z,22.65
2023-02-11T14:23:42.498Z,20.45
2023-02-11T14:26:56.358Z,21.08
2023-02-11T14:30:28.728Z,20.98
2023-02-11T14:33:58.728Z,20.88
2023-02-11T14:37:16.522Z,21.42
2023-02-11T14:40:29.744Z,21.20
2023-02-11T14:43:47.899Z,20.73
2023-02-11T14:46:53.680Z,22.25
2023-02-11T14:49:57.568Z,20.65
2023-02-11T14:53:03.314Z,20.63
2023-02-11T14:56:21.203Z,20.95
2023-02-11T14:59:25.220Z,21.63
2023-02-11T15:02:35.617Z,21.70
2023-02-11T15:05:39.566Z,21.00
2023-02-11T15:08:48.294Z,20.65
2023-02-11T15:11:53.209Z,20.50
2023-02-11T15:14:59.881Z,20.52
2023-02-11T15:18:05.127Z,20.75
2023-02-11T15:21:09.973Z,19.75
2023-02-11T15:24:25.202Z,21.20
2023-02-11T15:27:41.488Z,19.92
2023-02-11T15:30:45.515Z,19.75
2023-02-11T15:33:50.766Z,20.13
2023-02-11T15:36:54.926Z,19.88
2023-02-11T15:40:12.419Z,19.55
2023-02-11T15:43:16.238Z,19.42
2023-02-11T15:46:23.185Z,19.48
2023-02-11T15:49:28.243Z,19.02
2023-02-11T15:52:33.384Z,19.33
2023-02-11T15:55:41.156Z,18.95
2023-02-11T15:58:47.762Z,18.65
2023-02-11T16:01:54.279Z,17.95
2023-02-11T16:05:09.585Z,17.33
2023-02-11T16:08:29.941Z,16.98
2023-02-11T16:11:38.405Z,17.55
2023-02-11T16:14:42.653Z,16.58
2023-02-11T16:17:46.936Z,16.40
2023-02-11T16:20:51.777Z,16.52
2023-02-11T16:23:57.908Z,16.80
2023-02-11T16:27:23.969Z,15.98
2023-02-11T16:30:33.775Z,15.95
2023-02-11T16:33:38.131Z,15.88
2023-02-11T16:36:42.273Z,16.30
2023-02-11T16:39:47.150Z,17.02
2023-02-11T16:42:53.323Z,16.00
2023-02-11T16:45:58.410Z,16.50
2023-02-11T16:49:17.518Z,16.83
2023-02-11T16:52:22.164Z,16.70
2023-02-11T16:55:26.301Z,16.25
2023-02-11T16:58:30.738Z,16.65
2023-02-11T17:01:36.842Z,16.33
2023-02-11T17:04:41.315Z,16.50
2023-02-11T17:07:46.843Z,16.40
2023-02-11T17:10:51.243Z,15.93
2023-02-11T17:13:55.558Z,16.55
2023-02-11T17:17:00.130Z,16.30
2023-02-11T17:20:06.352Z,16.23
2023-02-11T17:23:10.510Z,15.63
2023-02-11T17:26:14.520Z,16.67
2023-02-11T17:29:21.806Z,16.25
2023-02-11T17:32:25.894Z,16.75
2023-02-11T17:35:30.158Z,16.80
2023-02-11T17:38:35.911Z,18.00
2023-02-11T17:41:40.688Z,17.75
2023-02-11T17:44:45.712Z,19.02
2023-02-11T17:47:49.975Z,20.00
2023-02-11T17:50:54.112Z,22.13
2023-02-11T17:54:01.207Z,22.23
2023-02-11T17:57:05.391Z,21.95
2023-02-11T18:00:10.335Z,23.02
2023-02-11T18:03:14.409Z,22.95
2023-02-11T18:06:19.361Z,22.75
2023-02-11T18:09:25.298Z,23.33
2023-02-11T18:12:29.515Z,24.67
2023-02-11T18:15:34.192Z,24.67
2023-02-11T18:18:38.200Z,23.98
2023-02-11T18:21:42.448Z,24.52
2023-02-11T18:24:52.287Z,25.35
2023-02-11T18:27:56.341Z,25.90
2023-02-11T18:31:00.773Z,26.70
2023-02-11T18:34:07.476Z,26.80
2023-02-11T18:37:13.327Z,29.48
2023-02-11T18:40:17.514Z,28.65
2023-02-11T18:43:21.619Z,28.23
2023-02-11T18:46:25.879Z,29.35
2023-02-11T18:49:30.230Z,30.67
2023-02-11T18:52:38.096Z,29.52
2023-02-11T18:55:43.977Z,30.42
2023-02-11T18:58:49.030Z,31.88
2023-02-11T19:01:53.209Z,31.67
2023-02-11T19:04:57.426Z,31.45
2023-02-11T19:08:01.501Z,30.98
2023-02-11T19:11:05.744Z,30.05
2023-02-11T19:14:10.453Z,30.00
2023-02-11T19:17:14.531Z,30.35
2023-02-11T19:20:18.969Z,31.63
2023-02-11T19:23:22.972Z,30.42
2023-02-11T19:26:28.596Z,31.92
2023-02-11T19:29:34.951Z,30.45
2023-02-11T19:32:39.521Z,31.55
2023-02-11T19:35:43.954Z,31.02
2023-02-11T19:38:48.264Z,31.20
2023-02-11T19:41:52.686Z,30.58
2023-02-11T19:44:57.295Z,30.80
2023-02-11T19:48:01.364Z,32.50
2023-02-11T19:51:13.013Z,31.67
2023-02-11T19:54:17.803Z,32.40
2023-02-11T19:57:22.170Z,31.52
2023-02-11T20:00:26.550Z,31.88
2023-02-11T20:03:30.852Z,32.63
2023-02-11T20:06:35.744Z,32.55
2023-02-11T20:09:41.056Z,32.25
2023-02-11T20:12:45.676Z,31.33
2023-02-11T20:15:50.255Z,32.28
2023-02-11T20:18:54.982Z,32.28
2023-02-11T20:21:59.037Z,32.50
2023-02-11T20:25:03.337Z,31.42
2023-02-11T20:28:07.348Z,33.15
2023-02-11T20:31:12.464Z,32.45
2023-02-11T20:34:17.624Z,31.38
2023-02-11T20:37:21.825Z,32.33
2023-02-11T20:40:26.106Z,33.42
2023-02-11T20:43:31.053Z,32.13
2023-02-11T20:46:38.096Z,32.42
2023-02-11T20:49:42.876Z,32.92
2023-02-11T20:52:48.291Z,34.17
2023-02-11T20:55:52.623Z,33.40
2023-02-11T20:58:58.427Z,32.70
2023-02-11T21:02:02.725Z,33.15
2023-02-11T21:05:07.405Z,32.58
2023-02-11T21:08:11.766Z,33.33
2023-02-11T21:11:16.379Z,33.35
2023-02-11T21:14:22.260Z,33.95
2023-02-11T21:17:27.482Z,34.63
2023-02-11T21:20:31.724Z,32.97
2023-02-11T21:23:35.947Z,33.30
2023-02-11T21:26:40.194Z,33.25
2023-02-11T21:29:53.859Z,33.22
2023-02-11T21:32:59.566Z,33.45
2023-02-11T21:36:04.614Z,33.08
2023-02-11T21:39:08.967Z,33.15
2023-02-11T21:42:12.666Z,33.58
2023-02-11T21:45:17.282Z,32.63
2023-02-11T21:48:21.362Z,33.38
2023-02-11T21:51:26.468Z,34.55
2023-02-11T21:54:32.034Z,34.22
2023-02-11T21:57:36.481Z,33.83
2023-02-11T22:00:40.679Z,33.30
2023-02-11T22:03:45.993Z,33.65
2023-02-11T22:06:50.157Z,32.85
2023-02-11T22:09:55.640Z,33.85
2023-02-11T22:12:59.639Z,33.90
2023-02-11T22:16:07.201Z,34.00
2023-02-11T22:19:11.683Z,33.75
2023-02-11T22:22:18.237Z,34.00
2023-02-11T22:25:22.126Z,34.63
2023-02-11T22:28:26.591Z,34.17
2023-02-11T22:31:33.289Z,34.53
2023-02-11T22:34:37.689Z,34.78
2023-02-11T22:37:41.741Z,34.70
2023-02-11T22:40:45.368Z,35.38
2023-02-11T22:43:50.161Z,35.10
2023-02-11T22:46:54.746Z,34.53
2023-02-11T22:49:59.174Z,34.00
2023-02-11T22:53:03.393Z,35.67
2023-02-11T22:56:15.389Z,36.05
2023-02-11T22:59:20.425Z,35.72
2023-02-11T23:02:24.560Z,34.72
2023-02-11T23:05:28.858Z,34.42
2023-02-11T23:08:33.663Z,35.25
2023-02-11T23:11:38.221Z,35.70
2023-02-11T23:14:42.712Z,35.53
2023-02-11T23:17:46.864Z,34.55
2023-02-11T23:20:50.998Z,35.95
2023-02-11T23:23:57.066Z,35.20
2023-02-11T23:27:00.949Z,34.72
2023-02-11T23:30:05.777Z,33.80
2023-02-11T23:33:09.714Z,34.60
2023-02-11T23:36:15.106Z,32.88
2023-02-11T23:39:19.096Z,32.70
2023-02-11T23:42:23.512Z,32.42
2023-02-11T23:45:27.841Z,33.45
2023-02-11T23:48:32.146Z,33.38
2023-02-11T23:51:36.405Z,33.17
2023-02-11T23:54:40.580Z,32.38
2023-02-11T23:57:44.760Z,31.70
